sensor_id;sensor_type;location;lat;lon;timestamp;temperature;humidity
37276;DHT22;23166;51.150;21.620;2022-12-20T00:00:49;-2.70;99.90
37276;DHT22;23166;51.150;21.620;2022-12-20T00:03:16;-2.60;99.90
37276;DHT22;23166;51.150;21.620;2022-12-20T00:05:43;-2.60;99.90
37276;DHT22;23166;51.150;21.620;2022-12-20T00:08:10;-2.50;99.90
37276;DHT22;23166;51.150;21.620;2022-12-20T00:10:41;-2.50;99.90
37276;DHT22;23166;51.150;21.620;2022-12-20T00:13:08;-2.40;99.90
37276;DHT22;23166;51.150;21.620;2022-12-20T00:15:34;-2.40;99.90
37276;DHT22;23166;51.150;21.620;2022-12-20T00:18:01;-2.40;99.90
37276;DHT22;23166;51.150;21.620;2022-12-20T00:20:27;-2.30;99.90
37276;DHT22;23166;51.150;21.620;2022-12-20T00:22:54;-2.30;99.90
37276;DHT22;23166;51.150;21.620;2022-12-20T00:25:21;-2.30;99.90
37276;DHT22;23166;51.150;21.620;2022-12-20T00:27:48;-2.20;99.90
37276;DHT22;23166;51.150;21.620;2022-12-20T00:30:14;-2.20;99.90
37276;DHT22;23166;51.150;21.620;2022-12-20T00:32:41;-2.10;99.90
37276;DHT22;23166;51.150;21.620;2022-12-20T00:35:08;-2.10;99.90
37276;DHT22;23166;51.150;21.620;2022-12-20T00:37:34;-2.00;99.90
37276;DHT22;23166;51.150;21.620;2022-12-20T00:40:00;-2.00;99.90
37276;DHT22;23166;51.150;21.620;2022-12-20T00:42:27;-1.90;99.90
37276;DHT22;23166;51.150;21.620;2022-12-20T00:44:53;-1.90;99.90
37276;DHT22;23166;51.150;21.620;2022-12-20T00:47:20;-1.90;99.90
37276;DHT22;23166;51.150;21.620;2022-12-20T00:49:46;-1.90;99.90
37276;DHT22;23166;51.150;21.620;2022-12-20T00:52:12;-1.90;99.90
37276;DHT22;23166;51.150;21.620;2022-12-20T00:54:39;-1.80;99.90
37276;DHT22;23166;51.150;21.620;2022-12-20T00:57:05;-1.80;99.90
37276;DHT22;23166;51.150;21.620;2022-12-20T00:59:32;-1.80;99.90
37276;DHT22;23166;51.150;21.620;2022-12-20T01:01:59;-1.80;99.90
37276;DHT22;23166;51.150;21.620;2022-12-20T01:04:25;-1.80;99.90
37276;DHT22;23166;51.150;21.620;2022-12-20T01:06:52;-1.70;99.90
37276;DHT22;23166;51.150;21.620;2022-12-20T01:09:18;-1.70;99.90
37276;DHT22;23166;51.150;21.620;2022-12-20T01:11:44;-1.70;99.90
37276;DHT22;23166;51.150;21.620;2022-12-20T01:14:13;-1.60;99.90
37276;DHT22;23166;51.150;21.620;2022-12-20T01:16:45;-1.60;99.90
37276;DHT22;23166;51.150;21.620;2022-12-20T01:19:11;-1.60;99.90
37276;DHT22;23166;51.150;21.620;2022-12-20T01:21:39;-1.50;99.90
37276;DHT22;23166;51.150;21.620;2022-12-20T01:24:07;-1.50;99.90
37276;DHT22;23166;51.150;21.620;2022-12-20T01:26:34;-1.40;99.90
37276;DHT22;23166;51.150;21.620;2022-12-20T01:29:00;-1.40;99.90
37276;DHT22;23166;51.150;21.620;2022-12-20T01:31:28;-1.40;99.90
37276;DHT22;23166;51.150;21.620;2022-12-20T01:33:55;-1.30;99.90
37276;DHT22;23166;51.150;21.620;2022-12-20T01:36:24;-1.30;99.90
37276;DHT22;23166;51.150;21.620;2022-12-20T01:38:59;-1.20;99.90
37276;DHT22;23166;51.150;21.620;2022-12-20T01:41:27;-1.20;99.90
37276;DHT22;23166;51.150;21.620;2022-12-20T01:43:57;-1.10;99.90
37276;DHT22;23166;51.150;21.620;2022-12-20T01:46:26;-1.20;99.90
37276;DHT22;23166;51.150;21.620;2022-12-20T01:49:13;-1.10;99.90
37276;DHT22;23166;51.150;21.620;2022-12-20T01:51:52;-1.10;99.90
37276;DHT22;23166;51.150;21.620;2022-12-20T01:54:25;-1.10;99.90
37276;DHT22;23166;51.150;21.620;2022-12-20T01:56:57;-1.00;99.90
37276;DHT22;23166;51.150;21.620;2022-12-20T01:59:26;-1.00;99.90
37276;DHT22;23166;51.150;21.620;2022-12-20T02:01:57;-1.00;99.90
37276;DHT22;23166;51.150;21.620;2022-12-20T02:04:23;-0.90;99.90
37276;DHT22;23166;51.150;21.620;2022-12-20T02:06:50;-1.00;99.90
37276;DHT22;23166;51.150;21.620;2022-12-20T02:09:16;-0.90;99.90
37276;DHT22;23166;51.150;21.620;2022-12-20T02:26:03;-0.80;99.90
37276;DHT22;23166;51.150;21.620;2022-12-20T02:31:23;-0.80;99.90
37276;DHT22;23166;51.150;21.620;2022-12-20T02:33:50;-0.70;99.90
37276;DHT22;23166;51.150;21.620;2022-12-20T02:36:17;-0.70;99.90
37276;DHT22;23166;51.150;21.620;2022-12-20T02:38:43;-0.70;99.90
37276;DHT22;23166;51.150;21.620;2022-12-20T02:44:00;-0.60;99.90
37276;DHT22;23166;51.150;21.620;2022-12-20T02:46:46;-0.60;99.90
37276;DHT22;23166;51.150;21.620;2022-12-20T02:49:16;-0.60;99.90
37276;DHT22;23166;51.150;21.620;2022-12-20T02:51:45;-0.60;99.90
37276;DHT22;23166;51.150;21.620;2022-12-20T02:54:12;-0.60;99.90
37276;DHT22;23166;51.150;21.620;2022-12-20T02:56:45;-0.50;99.90
37276;DHT22;23166;51.150;21.620;2022-12-20T02:59:19;-0.50;99.90
37276;DHT22;23166;51.150;21.620;2022-12-20T03:01:47;-0.50;99.90
37276;DHT22;23166;51.150;21.620;2022-12-20T03:04:16;-0.50;99.90
37276;DHT22;23166;51.150;21.620;2022-12-20T03:09:34;-0.50;99.90
37276;DHT22;23166;51.150;21.620;2022-12-20T03:12:01;-0.40;99.90
37276;DHT22;23166;51.150;21.620;2022-12-20T03:14:28;-0.40;99.90
37276;DHT22;23166;51.150;21.620;2022-12-20T03:16:54;-0.40;99.90
37276;DHT22;23166;51.150;21.620;2022-12-20T03:19:21;-0.40;99.90
37276;DHT22;23166;51.150;21.620;2022-12-20T03:21:47;-0.40;99.90
37276;DHT22;23166;51.150;21.620;2022-12-20T03:24:14;-0.30;99.90
37276;DHT22;23166;51.150;21.620;2022-12-20T03:26:41;-0.30;99.90
37276;DHT22;23166;51.150;21.620;2022-12-20T03:29:08;-0.30;99.90
37276;DHT22;23166;51.150;21.620;2022-12-20T03:31:35;-0.30;99.90
37276;DHT22;23166;51.150;21.620;2022-12-20T03:34:01;-0.30;99.90
37276;DHT22;23166;51.150;21.620;2022-12-20T03:36:28;-0.30;99.90
37276;DHT22;23166;51.150;21.620;2022-12-20T03:38:54;-0.20;99.90
37276;DHT22;23166;51.150;21.620;2022-12-20T03:41:22;-0.20;99.90
37276;DHT22;23166;51.150;21.620;2022-12-20T03:43:48;-0.20;99.90
37276;DHT22;23166;51.150;21.620;2022-12-20T03:46:15;-0.20;99.90
37276;DHT22;23166;51.150;21.620;2022-12-20T03:48:42;-0.10;99.90
37276;DHT22;23166;51.150;21.620;2022-12-20T03:51:09;-0.10;99.90
37276;DHT22;23166;51.150;21.620;2022-12-20T03:53:35;-0.10;99.90
37276;DHT22;23166;51.150;21.620;2022-12-20T03:56:02;-0.10;99.90
37276;DHT22;23166;51.150;21.620;2022-12-20T03:58:28;-0.10;99.90
37276;DHT22;23166;51.150;21.620;2022-12-20T04:00:56;-0.10;99.90
37276;DHT22;23166;51.150;21.620;2022-12-20T04:03:22;0.00;99.90
37276;DHT22;23166;51.150;21.620;2022-12-20T04:05:49;0.00;99.90
37276;DHT22;23166;51.150;21.620;2022-12-20T04:08:15;0.00;99.90
37276;DHT22;23166;51.150;21.620;2022-12-20T04:10:41;0.00;99.90
37276;DHT22;23166;51.150;21.620;2022-12-20T04:13:09;0.00;99.90
37276;DHT22;23166;51.150;21.620;2022-12-20T04:15:36;0.00;99.90
37276;DHT22;23166;51.150;21.620;2022-12-20T04:18:02;0.00;99.90
37276;DHT22;23166;51.150;21.620;2022-12-20T04:20:29;0.00;99.90
37276;DHT22;23166;51.150;21.620;2022-12-20T04:22:55;0.10;99.90
37276;DHT22;23166;51.150;21.620;2022-12-20T04:25:21;0.00;99.90
37276;DHT22;23166;51.150;21.620;2022-12-20T04:27:48;0.00;99.90
37276;DHT22;23166;51.150;21.620;2022-12-20T04:30:14;0.10;99.90
37276;DHT22;23166;51.150;21.620;2022-12-20T04:32:40;0.10;99.90
37276;DHT22;23166;51.150;21.620;2022-12-20T04:35:07;0.10;99.90
37276;DHT22;23166;51.150;21.620;2022-12-20T04:37:33;0.10;99.90
37276;DHT22;23166;51.150;21.620;2022-12-20T04:40:00;0.10;99.90
37276;DHT22;23166;51.150;21.620;2022-12-20T04:42:26;0.10;99.90
37276;DHT22;23166;51.150;21.620;2022-12-20T04:44:53;0.10;99.90
37276;DHT22;23166;51.150;21.620;2022-12-20T04:47:19;0.20;99.90
37276;DHT22;23166;51.150;21.620;2022-12-20T04:49:45;0.20;99.90
37276;DHT22;23166;51.150;21.620;2022-12-20T04:52:12;0.20;99.90
37276;DHT22;23166;51.150;21.620;2022-12-20T04:54:57;0.20;99.90
37276;DHT22;23166;51.150;21.620;2022-12-20T04:57:23;0.20;99.90
37276;DHT22;23166;51.150;21.620;2022-12-20T04:59:49;0.20;99.90
37276;DHT22;23166;51.150;21.620;2022-12-20T05:02:16;0.20;99.90
37276;DHT22;23166;51.150;21.620;2022-12-20T05:04:42;0.20;99.90
37276;DHT22;23166;51.150;21.620;2022-12-20T05:07:08;0.20;99.90
37276;DHT22;23166;51.150;21.620;2022-12-20T05:09:35;0.20;99.90
37276;DHT22;23166;51.150;21.620;2022-12-20T05:12:01;0.20;99.90
37276;DHT22;23166;51.150;21.620;2022-12-20T05:14:27;0.30;99.90
37276;DHT22;23166;51.150;21.620;2022-12-20T05:16:54;0.20;99.90
37276;DHT22;23166;51.150;21.620;2022-12-20T05:19:20;0.30;99.90
37276;DHT22;23166;51.150;21.620;2022-12-20T05:21:47;0.30;99.90
37276;DHT22;23166;51.150;21.620;2022-12-20T05:24:31;0.30;99.90
37276;DHT22;23166;51.150;21.620;2022-12-20T05:27:16;0.30;99.90
37276;DHT22;23166;51.150;21.620;2022-12-20T05:29:42;0.30;99.90
37276;DHT22;23166;51.150;21.620;2022-12-20T05:32:09;0.30;99.90
37276;DHT22;23166;51.150;21.620;2022-12-20T05:34:35;0.40;99.90
37276;DHT22;23166;51.150;21.620;2022-12-20T05:37:02;0.30;99.90
37276;DHT22;23166;51.150;21.620;2022-12-20T05:39:28;0.40;99.90
37276;DHT22;23166;51.150;21.620;2022-12-20T05:41:54;0.40;99.90
37276;DHT22;23166;51.150;21.620;2022-12-20T05:44:21;0.40;99.90
37276;DHT22;23166;51.150;21.620;2022-12-20T05:46:47;0.40;99.90
37276;DHT22;23166;51.150;21.620;2022-12-20T05:49:13;0.40;99.90
37276;DHT22;23166;51.150;21.620;2022-12-20T05:51:40;0.40;99.90
37276;DHT22;23166;51.150;21.620;2022-12-20T05:54:06;0.40;99.90
37276;DHT22;23166;51.150;21.620;2022-12-20T05:56:33;0.40;99.90
37276;DHT22;23166;51.150;21.620;2022-12-20T05:58:59;0.40;99.90
37276;DHT22;23166;51.150;21.620;2022-12-20T06:01:25;0.40;99.90
37276;DHT22;23166;51.150;21.620;2022-12-20T06:03:52;0.40;99.90
37276;DHT22;23166;51.150;21.620;2022-12-20T06:06:18;0.40;99.90
37276;DHT22;23166;51.150;21.620;2022-12-20T06:08:45;0.40;99.90
37276;DHT22;23166;51.150;21.620;2022-12-20T06:11:11;0.40;99.90
37276;DHT22;23166;51.150;21.620;2022-12-20T06:13:37;0.40;99.90
37276;DHT22;23166;51.150;21.620;2022-12-20T06:16:04;0.40;99.90
37276;DHT22;23166;51.150;21.620;2022-12-20T06:18:30;0.40;99.90
37276;DHT22;23166;51.150;21.620;2022-12-20T06:20:57;0.40;99.90
37276;DHT22;23166;51.150;21.620;2022-12-20T06:23:23;0.40;99.90
37276;DHT22;23166;51.150;21.620;2022-12-20T06:25:50;0.40;99.90
37276;DHT22;23166;51.150;21.620;2022-12-20T06:28:16;0.40;99.90
37276;DHT22;23166;51.150;21.620;2022-12-20T06:30:53;0.30;99.90
37276;DHT22;23166;51.150;21.620;2022-12-20T06:33:19;0.30;99.90
37276;DHT22;23166;51.150;21.620;2022-12-20T06:35:46;0.30;99.90
37276;DHT22;23166;51.150;21.620;2022-12-20T06:38:14;0.30;99.90
37276;DHT22;23166;51.150;21.620;2022-12-20T06:40:40;0.30;99.90
37276;DHT22;23166;51.150;21.620;2022-12-20T06:43:07;0.30;99.90
37276;DHT22;23166;51.150;21.620;2022-12-20T06:45:33;0.30;99.90
37276;DHT22;23166;51.150;21.620;2022-12-20T06:47:59;0.30;99.90
37276;DHT22;23166;51.150;21.620;2022-12-20T06:50:26;0.30;99.90
37276;DHT22;23166;51.150;21.620;2022-12-20T06:52:52;0.30;99.90
37276;DHT22;23166;51.150;21.620;2022-12-20T06:55:19;0.30;99.90
37276;DHT22;23166;51.150;21.620;2022-12-20T06:57:45;0.30;99.90
37276;DHT22;23166;51.150;21.620;2022-12-20T07:00:13;0.30;99.90
37276;DHT22;23166;51.150;21.620;2022-12-20T07:02:39;0.30;99.90
37276;DHT22;23166;51.150;21.620;2022-12-20T07:05:06;0.30;99.90
37276;DHT22;23166;51.150;21.620;2022-12-20T07:07:33;0.30;99.90
37276;DHT22;23166;51.150;21.620;2022-12-20T07:09:59;0.30;99.90
37276;DHT22;23166;51.150;21.620;2022-12-20T07:12:26;0.40;99.90
37276;DHT22;23166;51.150;21.620;2022-12-20T07:14:52;0.40;99.90
37276;DHT22;23166;51.150;21.620;2022-12-20T07:17:18;0.40;99.90
37276;DHT22;23166;51.150;21.620;2022-12-20T07:19:45;0.40;99.90
37276;DHT22;23166;51.150;21.620;2022-12-20T07:22:12;0.40;99.90
37276;DHT22;23166;51.150;21.620;2022-12-20T07:24:38;0.40;99.90
37276;DHT22;23166;51.150;21.620;2022-12-20T07:27:05;0.40;99.90
37276;DHT22;23166;51.150;21.620;2022-12-20T07:29:31;0.50;99.90
37276;DHT22;23166;51.150;21.620;2022-12-20T07:31:58;0.50;99.90
37276;DHT22;23166;51.150;21.620;2022-12-20T07:34:24;0.50;99.90
37276;DHT22;23166;51.150;21.620;2022-12-20T07:36:51;0.50;99.90
37276;DHT22;23166;51.150;21.620;2022-12-20T07:39:17;0.50;99.90
37276;DHT22;23166;51.150;21.620;2022-12-20T07:41:44;0.50;99.90
37276;DHT22;23166;51.150;21.620;2022-12-20T07:44:11;0.60;99.90
37276;DHT22;23166;51.150;21.620;2022-12-20T07:46:37;0.60;99.90
37276;DHT22;23166;51.150;21.620;2022-12-20T07:49:04;0.60;99.90
37276;DHT22;23166;51.150;21.620;2022-12-20T07:51:33;0.60;99.90
37276;DHT22;23166;51.150;21.620;2022-12-20T07:54:05;0.60;99.90
37276;DHT22;23166;51.150;21.620;2022-12-20T07:56:33;0.70;99.90
37276;DHT22;23166;51.150;21.620;2022-12-20T07:59:02;0.70;99.90
37276;DHT22;23166;51.150;21.620;2022-12-20T08:01:29;0.70;99.90
37276;DHT22;23166;51.150;21.620;2022-12-20T08:04:04;0.70;99.90
37276;DHT22;23166;51.150;21.620;2022-12-20T08:06:32;0.70;99.90
37276;DHT22;23166;51.150;21.620;2022-12-20T08:09:01;0.80;99.90
37276;DHT22;23166;51.150;21.620;2022-12-20T08:11:28;0.80;99.90
37276;DHT22;23166;51.150;21.620;2022-12-20T08:13:56;0.80;99.90
37276;DHT22;23166;51.150;21.620;2022-12-20T08:16:23;0.90;99.90
37276;DHT22;23166;51.150;21.620;2022-12-20T08:18:49;0.90;99.90
37276;DHT22;23166;51.150;21.620;2022-12-20T08:21:16;0.90;99.90
37276;DHT22;23166;51.150;21.620;2022-12-20T08:23:42;1.00;99.90
37276;DHT22;23166;51.150;21.620;2022-12-20T08:26:08;1.00;99.90
37276;DHT22;23166;51.150;21.620;2022-12-20T08:28:35;1.00;99.90
37276;DHT22;23166;51.150;21.620;2022-12-20T08:31:06;1.00;99.90
37276;DHT22;23166;51.150;21.620;2022-12-20T08:33:34;1.00;99.90
37276;DHT22;23166;51.150;21.620;2022-12-20T08:36:04;1.00;99.90
37276;DHT22;23166;51.150;21.620;2022-12-20T08:38:31;1.00;99.90
37276;DHT22;23166;51.150;21.620;2022-12-20T08:41:05;1.00;99.90
37276;DHT22;23166;51.150;21.620;2022-12-20T08:43:33;1.10;99.90
37276;DHT22;23166;51.150;21.620;2022-12-20T08:45:59;1.10;99.90
37276;DHT22;23166;51.150;21.620;2022-12-20T08:48:26;1.10;99.90
37276;DHT22;23166;51.150;21.620;2022-12-20T08:50:56;1.20;99.90
37276;DHT22;23166;51.150;21.620;2022-12-20T08:53:23;1.20;99.90
37276;DHT22;23166;51.150;21.620;2022-12-20T08:55:50;1.30;99.90
37276;DHT22;23166;51.150;21.620;2022-12-20T08:58:16;1.40;99.90
37276;DHT22;23166;51.150;21.620;2022-12-20T09:00:43;1.50;99.90
37276;DHT22;23166;51.150;21.620;2022-12-20T09:03:09;1.50;99.90
37276;DHT22;23166;51.150;21.620;2022-12-20T09:05:45;1.60;99.90
37276;DHT22;23166;51.150;21.620;2022-12-20T09:08:13;1.60;99.90
37276;DHT22;23166;51.150;21.620;2022-12-20T09:10:40;1.70;99.90
37276;DHT22;23166;51.150;21.620;2022-12-20T09:13:06;1.70;99.90
37276;DHT22;23166;51.150;21.620;2022-12-20T09:15:34;1.60;99.90
37276;DHT22;23166;51.150;21.620;2022-12-20T09:18:01;1.70;99.90
37276;DHT22;23166;51.150;21.620;2022-12-20T09:20:28;1.70;99.90
37276;DHT22;23166;51.150;21.620;2022-12-20T09:22:54;1.70;99.90
37276;DHT22;23166;51.150;21.620;2022-12-20T09:25:21;1.70;99.90
37276;DHT22;23166;51.150;21.620;2022-12-20T09:27:47;1.80;99.90
37276;DHT22;23166;51.150;21.620;2022-12-20T09:30:14;1.80;99.90
37276;DHT22;23166;51.150;21.620;2022-12-20T09:32:40;1.80;99.90
37276;DHT22;23166;51.150;21.620;2022-12-20T09:35:07;1.80;99.90
37276;DHT22;23166;51.150;21.620;2022-12-20T09:37:33;1.90;99.90
37276;DHT22;23166;51.150;21.620;2022-12-20T09:39:59;1.90;99.90
37276;DHT22;23166;51.150;21.620;2022-12-20T09:42:27;1.90;99.90
37276;DHT22;23166;51.150;21.620;2022-12-20T09:44:59;1.90;99.90
37276;DHT22;23166;51.150;21.620;2022-12-20T09:47:24;1.90;99.90
37276;DHT22;23166;51.150;21.620;2022-12-20T09:49:54;1.90;99.90
37276;DHT22;23166;51.150;21.620;2022-12-20T10:00:49;2.00;99.90
37276;DHT22;23166;51.150;21.620;2022-12-20T10:03:19;2.00;99.90
37276;DHT22;23166;51.150;21.620;2022-12-20T10:05:54;2.00;99.90
37276;DHT22;23166;51.150;21.620;2022-12-20T10:10:56;1.90;99.90
37276;DHT22;23166;51.150;21.620;2022-12-20T10:13:32;1.90;99.90
37276;DHT22;23166;51.150;21.620;2022-12-20T10:16:26;1.80;99.90
37276;DHT22;23166;51.150;21.620;2022-12-20T10:24:00;1.80;99.90
37276;DHT22;23166;51.150;21.620;2022-12-20T10:26:28;1.80;99.90
37276;DHT22;23166;51.150;21.620;2022-12-20T10:28:55;1.80;99.90
37276;DHT22;23166;51.150;21.620;2022-12-20T10:31:21;1.80;99.90
37276;DHT22;23166;51.150;21.620;2022-12-20T10:33:47;1.70;99.90
37276;DHT22;23166;51.150;21.620;2022-12-20T10:36:33;1.80;99.90
37276;DHT22;23166;51.150;21.620;2022-12-20T10:39:03;1.80;99.90
37276;DHT22;23166;51.150;21.620;2022-12-20T10:44:28;1.80;99.90
37276;DHT22;23166;51.150;21.620;2022-12-20T10:46:57;1.90;99.90
37276;DHT22;23166;51.150;21.620;2022-12-20T10:49:32;1.90;99.90
37276;DHT22;23166;51.150;21.620;2022-12-20T10:54:37;2.10;99.90
37276;DHT22;23166;51.150;21.620;2022-12-20T10:57:18;2.20;99.90
37276;DHT22;23166;51.150;21.620;2022-12-20T10:59:54;2.20;99.90
37276;DHT22;23166;51.150;21.620;2022-12-20T11:05:00;2.20;97.80
37276;DHT22;23166;51.150;21.620;2022-12-20T11:07:29;2.20;99.60
37276;DHT22;23166;51.150;21.620;2022-12-20T11:09:59;2.20;99.90
37276;DHT22;23166;51.150;21.620;2022-12-20T11:12:26;2.20;99.90
37276;DHT22;23166;51.150;21.620;2022-12-20T11:15:17;2.20;99.90
37276;DHT22;23166;51.150;21.620;2022-12-20T11:17:46;2.10;99.90
37276;DHT22;23166;51.150;21.620;2022-12-20T11:31:50;2.40;98.80
37276;DHT22;23166;51.150;21.620;2022-12-20T11:34:22;2.50;99.90
37276;DHT22;23166;51.150;21.620;2022-12-20T11:36:59;2.60;99.90
37276;DHT22;23166;51.150;21.620;2022-12-20T11:39:47;2.60;99.90
37276;DHT22;23166;51.150;21.620;2022-12-20T11:50:44;2.70;99.90
37276;DHT22;23166;51.150;21.620;2022-12-20T11:56:15;2.80;98.50
37276;DHT22;23166;51.150;21.620;2022-12-20T12:02:12;2.80;94.90
37276;DHT22;23166;51.150;21.620;2022-12-20T12:06:58;2.90;94.40
37276;DHT22;23166;51.150;21.620;2022-12-20T12:12:18;2.70;92.90
37276;DHT22;23166;51.150;21.620;2022-12-20T12:17:28;2.60;96.80
37276;DHT22;23166;51.150;21.620;2022-12-20T12:19:55;2.50;97.40
37276;DHT22;23166;51.150;21.620;2022-12-20T12:22:27;2.40;98.50
37276;DHT22;23166;51.150;21.620;2022-12-20T12:24:56;2.40;99.90
37276;DHT22;23166;51.150;21.620;2022-12-20T12:27:25;2.30;98.00
37276;DHT22;23166;51.150;21.620;2022-12-20T12:29:53;2.30;99.20
37276;DHT22;23166;51.150;21.620;2022-12-20T12:32:34;2.30;99.90
37276;DHT22;23166;51.150;21.620;2022-12-20T12:38:02;2.20;96.50
37276;DHT22;23166;51.150;21.620;2022-12-20T12:45:51;2.10;95.90
37276;DHT22;23166;51.150;21.620;2022-12-20T12:48:21;2.10;97.00
37276;DHT22;23166;51.150;21.620;2022-12-20T12:50:52;2.00;97.00
37276;DHT22;23166;51.150;21.620;2022-12-20T13:04:28;2.00;99.50
37276;DHT22;23166;51.150;21.620;2022-12-20T13:06:57;2.00;99.90
37276;DHT22;23166;51.150;21.620;2022-12-20T13:11:56;2.10;99.90
37276;DHT22;23166;51.150;21.620;2022-12-20T13:16:54;2.20;99.90
37276;DHT22;23166;51.150;21.620;2022-12-20T13:21:56;2.10;97.50
37276;DHT22;23166;51.150;21.620;2022-12-20T13:33:18;2.10;99.90
37276;DHT22;23166;51.150;21.620;2022-12-20T13:35:28;2.00;99.90
37276;DHT22;23166;51.150;21.620;2022-12-20T13:41:00;2.00;99.90
37276;DHT22;23166;51.150;21.620;2022-12-20T13:43:34;2.00;99.90
37276;DHT22;23166;51.150;21.620;2022-12-20T13:51:16;1.90;99.90
37276;DHT22;23166;51.150;21.620;2022-12-20T13:54:05;1.90;99.90
37276;DHT22;23166;51.150;21.620;2022-12-20T14:01:48;1.80;99.90
37276;DHT22;23166;51.150;21.620;2022-12-20T14:04:15;1.80;99.90
37276;DHT22;23166;51.150;21.620;2022-12-20T14:06:42;1.70;99.90
37276;DHT22;23166;51.150;21.620;2022-12-20T14:09:35;1.70;99.90
37276;DHT22;23166;51.150;21.620;2022-12-20T14:14:46;1.70;99.90
37276;DHT22;23166;51.150;21.620;2022-12-20T14:22:57;1.60;99.90
37276;DHT22;23166;51.150;21.620;2022-12-20T14:25:47;1.60;99.90
37276;DHT22;23166;51.150;21.620;2022-12-20T14:27:54;1.60;99.90
37276;DHT22;23166;51.150;21.620;2022-12-20T14:30:30;1.60;99.90
37276;DHT22;23166;51.150;21.620;2022-12-20T14:32:55;1.50;99.90
37276;DHT22;23166;51.150;21.620;2022-12-20T14:35:21;1.50;99.90
37276;DHT22;23166;51.150;21.620;2022-12-20T14:37:52;1.50;99.90
37276;DHT22;23166;51.150;21.620;2022-12-20T14:40:20;1.40;99.90
37276;DHT22;23166;51.150;21.620;2022-12-20T14:42:47;1.40;99.90
37276;DHT22;23166;51.150;21.620;2022-12-20T14:47:55;1.30;99.90
37276;DHT22;23166;51.150;21.620;2022-12-20T14:50:33;1.20;99.90
37276;DHT22;23166;51.150;21.620;2022-12-20T14:53:01;1.20;99.90
37276;DHT22;23166;51.150;21.620;2022-12-20T14:55:45;1.10;99.90
37276;DHT22;23166;51.150;21.620;2022-12-20T14:58:33;1.00;99.90
37276;DHT22;23166;51.150;21.620;2022-12-20T15:01:03;1.00;99.90
37276;DHT22;23166;51.150;21.620;2022-12-20T15:03:29;1.00;99.90
37276;DHT22;23166;51.150;21.620;2022-12-20T15:05:57;1.00;99.90
37276;DHT22;23166;51.150;21.620;2022-12-20T15:08:32;1.00;99.90
37276;DHT22;23166;51.150;21.620;2022-12-20T15:13:37;0.90;99.90
37276;DHT22;23166;51.150;21.620;2022-12-20T15:16:15;0.90;99.90
37276;DHT22;23166;51.150;21.620;2022-12-20T15:18:33;0.90;99.90
37276;DHT22;23166;51.150;21.620;2022-12-20T15:21:43;0.90;99.90
37276;DHT22;23166;51.150;21.620;2022-12-20T15:23:32;0.90;99.90
37276;DHT22;23166;51.150;21.620;2022-12-20T15:25:59;0.90;99.90
37276;DHT22;23166;51.150;21.620;2022-12-20T15:28:25;0.90;99.90
37276;DHT22;23166;51.150;21.620;2022-12-20T15:30:52;0.90;99.90
37276;DHT22;23166;51.150;21.620;2022-12-20T15:33:27;0.80;99.90
37276;DHT22;23166;51.150;21.620;2022-12-20T15:35:54;0.80;99.90
37276;DHT22;23166;51.150;21.620;2022-12-20T15:38:24;0.80;99.90
37276;DHT22;23166;51.150;21.620;2022-12-20T15:40:53;0.80;99.90
37276;DHT22;23166;51.150;21.620;2022-12-20T15:43:22;0.80;99.90
37276;DHT22;23166;51.150;21.620;2022-12-20T15:45:51;0.80;99.90
37276;DHT22;23166;51.150;21.620;2022-12-20T15:48:21;0.80;99.90
37276;DHT22;23166;51.150;21.620;2022-12-20T15:50:57;0.80;99.90
37276;DHT22;23166;51.150;21.620;2022-12-20T15:53:26;0.80;99.90
37276;DHT22;23166;51.150;21.620;2022-12-20T15:55:54;0.80;99.90
37276;DHT22;23166;51.150;21.620;2022-12-20T15:58:22;0.80;99.90
37276;DHT22;23166;51.150;21.620;2022-12-20T16:00:49;0.80;99.90
37276;DHT22;23166;51.150;21.620;2022-12-20T16:03:21;0.80;99.90
37276;DHT22;23166;51.150;21.620;2022-12-20T16:05:49;0.90;99.90
37276;DHT22;23166;51.150;21.620;2022-12-20T16:08:18;0.90;99.90
37276;DHT22;23166;51.150;21.620;2022-12-20T16:10:45;0.90;99.90
37276;DHT22;23166;51.150;21.620;2022-12-20T16:13:19;0.90;99.90
37276;DHT22;23166;51.150;21.620;2022-12-20T16:15:44;0.90;99.90
37276;DHT22;23166;51.150;21.620;2022-12-20T16:18:11;1.00;99.90
37276;DHT22;23166;51.150;21.620;2022-12-20T16:20:37;1.00;99.90
37276;DHT22;23166;51.150;21.620;2022-12-20T16:23:04;1.00;99.90
37276;DHT22;23166;51.150;21.620;2022-12-20T16:25:35;1.00;99.90
37276;DHT22;23166;51.150;21.620;2022-12-20T16:28:01;1.00;99.90
37276;DHT22;23166;51.150;21.620;2022-12-20T16:30:28;1.10;99.90
37276;DHT22;23166;51.150;21.620;2022-12-20T16:32:54;1.10;99.90
37276;DHT22;23166;51.150;21.620;2022-12-20T16:35:26;1.00;99.90
37276;DHT22;23166;51.150;21.620;2022-12-20T16:37:54;1.00;99.90
37276;DHT22;23166;51.150;21.620;2022-12-20T16:40:22;1.00;99.90
37276;DHT22;23166;51.150;21.620;2022-12-20T16:42:48;1.00;99.90
37276;DHT22;23166;51.150;21.620;2022-12-20T16:45:18;1.00;99.90
37276;DHT22;23166;51.150;21.620;2022-12-20T16:47:46;1.00;99.90
37276;DHT22;23166;51.150;21.620;2022-12-20T16:50:12;1.00;99.90
37276;DHT22;23166;51.150;21.620;2022-12-20T16:52:39;1.00;99.90
37276;DHT22;23166;51.150;21.620;2022-12-20T16:55:06;1.10;99.90
37276;DHT22;23166;51.150;21.620;2022-12-20T16:57:33;1.00;99.90
37276;DHT22;23166;51.150;21.620;2022-12-20T16:59:59;1.10;99.90
37276;DHT22;23166;51.150;21.620;2022-12-20T17:02:31;1.10;99.90
37276;DHT22;23166;51.150;21.620;2022-12-20T17:04:58;1.10;99.90
37276;DHT22;23166;51.150;21.620;2022-12-20T17:07:25;1.10;99.90
37276;DHT22;23166;51.150;21.620;2022-12-20T17:09:51;1.10;99.90
37276;DHT22;23166;51.150;21.620;2022-12-20T17:12:20;1.10;99.90
37276;DHT22;23166;51.150;21.620;2022-12-20T17:14:47;1.10;99.90
37276;DHT22;23166;51.150;21.620;2022-12-20T17:17:15;1.10;99.90
37276;DHT22;23166;51.150;21.620;2022-12-20T17:19:42;1.10;99.90
37276;DHT22;23166;51.150;21.620;2022-12-20T17:22:10;1.20;99.90
37276;DHT22;23166;51.150;21.620;2022-12-20T17:24:37;1.20;99.90
37276;DHT22;23166;51.150;21.620;2022-12-20T17:27:04;1.20;99.90
37276;DHT22;23166;51.150;21.620;2022-12-20T17:29:30;1.20;99.90
37276;DHT22;23166;51.150;21.620;2022-12-20T17:31:56;1.20;99.90
37276;DHT22;23166;51.150;21.620;2022-12-20T17:34:26;1.20;99.90
37276;DHT22;23166;51.150;21.620;2022-12-20T17:36:55;1.20;99.90
37276;DHT22;23166;51.150;21.620;2022-12-20T17:39:23;1.20;99.90
37276;DHT22;23166;51.150;21.620;2022-12-20T17:41:50;1.20;99.90
37276;DHT22;23166;51.150;21.620;2022-12-20T17:44:20;1.20;99.90
37276;DHT22;23166;51.150;21.620;2022-12-20T17:46:47;1.20;99.90
37276;DHT22;23166;51.150;21.620;2022-12-20T17:49:13;1.20;99.90
37276;DHT22;23166;51.150;21.620;2022-12-20T17:51:39;1.20;99.90
37276;DHT22;23166;51.150;21.620;2022-12-20T17:54:12;1.20;99.90
37276;DHT22;23166;51.150;21.620;2022-12-20T17:56:36;1.20;99.90
37276;DHT22;23166;51.150;21.620;2022-12-20T17:59:02;1.20;99.90